Laniel, Canada
Current Conditions -  °F | °C
As of 8:00 PM on Friday 28 Nov 2014 (Local Time) from CYYB Reporting Station
Overcast Overcast  
Wind Chill:   Ceiling: 10000
Heat Index:   Visibility: 15mi
Dew Point:   Wind: 2mph
Humidity: 85%   Direction: 340°NNW
Pressure: 30.11"   Gusts: NA
Location:  47.03°N, 79.27°W
Report Text: CYYB 290100Z 34002KT 15SM OVC100 M13/M15 A3011 RMK AC8 SLP230
Loading
Personal Weather Stations






























Interactive Weather Map New forecast layout! Learn more

10-Day Weather Forecast

Advertisements
Track Severe Weather on mobile